Terminal Aerodrome Forecast
Issued by NWS Louisville, KY

Home | Current Version | Previous Version | Text Only | Print | Product List | Glossary On
Versions: 1 2 3 4 5 6 7 8 9 10 11 12 13 14
830
FTUS43 KLMK 052320
TAFBWG
TAF
KBWG 052320Z 0600/0624 33006KT P6SM BKN040
     FM060400 VRB04KT P6SM SCT030
     FM061500 33008KT P6SM SCT040=

USA.gov is the U.S. government's official web portal to all federal, state and local government web resources and services.